sensor_id;sensor_type;location;lat;lon;timestamp;temperature;humidity
16901;DHT22;8567;52.540;6.434;2023-08-06T00:00:32;26.10;51.50
16901;DHT22;8567;52.540;6.434;2023-08-06T00:02:59;26.00;51.50
16901;DHT22;8567;52.540;6.434;2023-08-06T00:05:26;26.00;51.50
16901;DHT22;8567;52.540;6.434;2023-08-06T00:07:53;26.00;51.60
16901;DHT22;8567;52.540;6.434;2023-08-06T00:10:20;26.00;51.60
16901;DHT22;8567;52.540;6.434;2023-08-06T00:12:46;25.90;51.70
16901;DHT22;8567;52.540;6.434;2023-08-06T00:15:15;25.90;51.70
16901;DHT22;8567;52.540;6.434;2023-08-06T00:17:42;25.90;51.80
16901;DHT22;8567;52.540;6.434;2023-08-06T00:20:09;25.90;51.70
16901;DHT22;8567;52.540;6.434;2023-08-06T00:22:37;25.90;51.60
16901;DHT22;8567;52.540;6.434;2023-08-06T00:25:05;26.00;51.60
16901;DHT22;8567;52.540;6.434;2023-08-06T00:27:32;25.90;51.70
16901;DHT22;8567;52.540;6.434;2023-08-06T00:29:59;25.90;51.60
16901;DHT22;8567;52.540;6.434;2023-08-06T00:32:27;25.90;51.60
16901;DHT22;8567;52.540;6.434;2023-08-06T00:34:54;25.90;51.60
16901;DHT22;8567;52.540;6.434;2023-08-06T00:37:21;25.90;51.60
16901;DHT22;8567;52.540;6.434;2023-08-06T00:39:48;25.90;51.60
16901;DHT22;8567;52.540;6.434;2023-08-06T00:42:14;25.90;51.60
16901;DHT22;8567;52.540;6.434;2023-08-06T00:44:46;25.90;51.50
16901;DHT22;8567;52.540;6.434;2023-08-06T00:47:13;25.90;51.60
16901;DHT22;8567;52.540;6.434;2023-08-06T00:49:41;25.90;51.60
16901;DHT22;8567;52.540;6.434;2023-08-06T00:52:08;25.90;51.60
16901;DHT22;8567;52.540;6.434;2023-08-06T00:54:36;25.90;51.50
16901;DHT22;8567;52.540;6.434;2023-08-06T00:57:04;25.90;51.50
16901;DHT22;8567;52.540;6.434;2023-08-06T00:59:31;25.80;51.60
16901;DHT22;8567;52.540;6.434;2023-08-06T01:01:58;25.80;51.60
16901;DHT22;8567;52.540;6.434;2023-08-06T01:04:25;25.80;51.60
16901;DHT22;8567;52.540;6.434;2023-08-06T01:07:00;25.80;51.70
16901;DHT22;8567;52.540;6.434;2023-08-06T01:09:35;25.80;51.70
16901;DHT22;8567;52.540;6.434;2023-08-06T01:12:10;25.80;51.60
16901;DHT22;8567;52.540;6.434;2023-08-06T01:14:48;25.80;51.60
16901;DHT22;8567;52.540;6.434;2023-08-06T01:17:18;25.80;51.70
16901;DHT22;8567;52.540;6.434;2023-08-06T01:19:45;25.80;51.70
16901;DHT22;8567;52.540;6.434;2023-08-06T01:22:13;25.70;51.80
16901;DHT22;8567;52.540;6.434;2023-08-06T01:24:41;25.70;51.80
16901;DHT22;8567;52.540;6.434;2023-08-06T01:27:20;25.70;51.80
16901;DHT22;8567;52.540;6.434;2023-08-06T01:29:56;25.80;51.70
16901;DHT22;8567;52.540;6.434;2023-08-06T01:32:25;25.70;51.70
16901;DHT22;8567;52.540;6.434;2023-08-06T01:34:53;25.70;51.70
16901;DHT22;8567;52.540;6.434;2023-08-06T01:37:22;25.70;51.80
16901;DHT22;8567;52.540;6.434;2023-08-06T01:39:50;25.70;51.80
16901;DHT22;8567;52.540;6.434;2023-08-06T01:42:16;25.70;51.80
16901;DHT22;8567;52.540;6.434;2023-08-06T01:44:43;25.70;51.70
16901;DHT22;8567;52.540;6.434;2023-08-06T01:47:10;25.70;51.80
16901;DHT22;8567;52.540;6.434;2023-08-06T01:49:37;25.70;51.80
16901;DHT22;8567;52.540;6.434;2023-08-06T01:52:04;25.70;51.80
16901;DHT22;8567;52.540;6.434;2023-08-06T01:54:33;25.70;51.80
16901;DHT22;8567;52.540;6.434;2023-08-06T01:56:59;25.70;51.70
16901;DHT22;8567;52.540;6.434;2023-08-06T01:59:26;25.70;51.70
16901;DHT22;8567;52.540;6.434;2023-08-06T02:01:53;25.70;51.70
16901;DHT22;8567;52.540;6.434;2023-08-06T02:04:20;25.70;51.70
16901;DHT22;8567;52.540;6.434;2023-08-06T02:06:47;25.70;51.60
16901;DHT22;8567;52.540;6.434;2023-08-06T02:09:14;25.80;51.60
16901;DHT22;8567;52.540;6.434;2023-08-06T02:11:42;25.70;51.70
16901;DHT22;8567;52.540;6.434;2023-08-06T02:14:09;25.70;51.70
16901;DHT22;8567;52.540;6.434;2023-08-06T02:16:36;25.70;51.80
16901;DHT22;8567;52.540;6.434;2023-08-06T02:19:02;25.70;51.70
16901;DHT22;8567;52.540;6.434;2023-08-06T02:21:29;25.70;51.70
16901;DHT22;8567;52.540;6.434;2023-08-06T02:23:56;25.60;51.80
16901;DHT22;8567;52.540;6.434;2023-08-06T02:26:23;25.70;51.80
16901;DHT22;8567;52.540;6.434;2023-08-06T02:28:51;25.60;51.80
16901;DHT22;8567;52.540;6.434;2023-08-06T02:31:18;25.70;51.80
16901;DHT22;8567;52.540;6.434;2023-08-06T02:33:45;25.60;51.80
16901;DHT22;8567;52.540;6.434;2023-08-06T02:36:12;25.60;51.80
16901;DHT22;8567;52.540;6.434;2023-08-06T02:38:39;25.60;51.90
16901;DHT22;8567;52.540;6.434;2023-08-06T02:41:05;25.60;51.80
16901;DHT22;8567;52.540;6.434;2023-08-06T02:43:32;25.60;51.80
16901;DHT22;8567;52.540;6.434;2023-08-06T02:46:00;25.60;51.90
16901;DHT22;8567;52.540;6.434;2023-08-06T02:48:27;25.60;51.90
16901;DHT22;8567;52.540;6.434;2023-08-06T02:50:57;25.60;51.80
16901;DHT22;8567;52.540;6.434;2023-08-06T02:53:25;25.60;51.80
16901;DHT22;8567;52.540;6.434;2023-08-06T02:55:52;25.60;51.90
16901;DHT22;8567;52.540;6.434;2023-08-06T02:58:19;25.60;51.90
16901;DHT22;8567;52.540;6.434;2023-08-06T03:01:00;25.60;51.70
16901;DHT22;8567;52.540;6.434;2023-08-06T03:03:28;25.60;51.80
16901;DHT22;8567;52.540;6.434;2023-08-06T03:05:55;25.60;51.80
16901;DHT22;8567;52.540;6.434;2023-08-06T03:08:23;25.60;51.80
16901;DHT22;8567;52.540;6.434;2023-08-06T03:10:50;25.60;51.80
16901;DHT22;8567;52.540;6.434;2023-08-06T03:13:17;25.60;51.80
16901;DHT22;8567;52.540;6.434;2023-08-06T03:15:51;25.50;51.80
16901;DHT22;8567;52.540;6.434;2023-08-06T03:18:19;25.50;51.90
16901;DHT22;8567;52.540;6.434;2023-08-06T03:20:46;25.60;51.80
16901;DHT22;8567;52.540;6.434;2023-08-06T03:23:13;25.60;51.70
16901;DHT22;8567;52.540;6.434;2023-08-06T03:25:40;25.60;51.70
16901;DHT22;8567;52.540;6.434;2023-08-06T03:28:07;25.50;51.80
16901;DHT22;8567;52.540;6.434;2023-08-06T03:30:34;25.50;51.80
16901;DHT22;8567;52.540;6.434;2023-08-06T03:33:01;25.60;51.70
16901;DHT22;8567;52.540;6.434;2023-08-06T03:35:29;25.50;51.90
16901;DHT22;8567;52.540;6.434;2023-08-06T03:37:56;25.50;51.80
16901;DHT22;8567;52.540;6.434;2023-08-06T03:40:23;25.50;51.80
16901;DHT22;8567;52.540;6.434;2023-08-06T03:42:49;25.60;51.70
16901;DHT22;8567;52.540;6.434;2023-08-06T03:45:17;25.50;51.70
16901;DHT22;8567;52.540;6.434;2023-08-06T03:47:43;25.50;51.70
16901;DHT22;8567;52.540;6.434;2023-08-06T03:50:10;25.50;51.80
16901;DHT22;8567;52.540;6.434;2023-08-06T03:52:38;25.50;51.80
16901;DHT22;8567;52.540;6.434;2023-08-06T03:55:06;25.50;51.80
16901;DHT22;8567;52.540;6.434;2023-08-06T03:57:33;25.50;51.80
16901;DHT22;8567;52.540;6.434;2023-08-06T03:59:59;25.50;51.80
16901;DHT22;8567;52.540;6.434;2023-08-06T04:02:26;25.40;51.90
16901;DHT22;8567;52.540;6.434;2023-08-06T04:04:53;25.50;51.80
16901;DHT22;8567;52.540;6.434;2023-08-06T04:07:20;25.50;51.80
16901;DHT22;8567;52.540;6.434;2023-08-06T04:09:56;25.50;51.90
16901;DHT22;8567;52.540;6.434;2023-08-06T04:12:23;25.50;51.80
16901;DHT22;8567;52.540;6.434;2023-08-06T04:14:51;25.50;51.90
16901;DHT22;8567;52.540;6.434;2023-08-06T04:17:18;25.50;51.90
16901;DHT22;8567;52.540;6.434;2023-08-06T04:19:48;25.50;51.90
16901;DHT22;8567;52.540;6.434;2023-08-06T04:22:15;25.50;51.80
16901;DHT22;8567;52.540;6.434;2023-08-06T04:24:43;25.50;51.80
16901;DHT22;8567;52.540;6.434;2023-08-06T04:27:11;25.40;51.80
16901;DHT22;8567;52.540;6.434;2023-08-06T04:29:39;25.40;51.80
16901;DHT22;8567;52.540;6.434;2023-08-06T04:32:07;25.40;51.90
16901;DHT22;8567;52.540;6.434;2023-08-06T04:34:34;25.50;51.90
16901;DHT22;8567;52.540;6.434;2023-08-06T04:37:01;25.40;51.90
16901;DHT22;8567;52.540;6.434;2023-08-06T04:39:28;25.40;51.90
16901;DHT22;8567;52.540;6.434;2023-08-06T04:41:55;25.50;51.80
16901;DHT22;8567;52.540;6.434;2023-08-06T04:44:24;25.50;51.80
16901;DHT22;8567;52.540;6.434;2023-08-06T04:46:51;25.50;51.80
16901;DHT22;8567;52.540;6.434;2023-08-06T04:49:19;25.50;51.70
16901;DHT22;8567;52.540;6.434;2023-08-06T04:51:46;25.50;51.60
16901;DHT22;8567;52.540;6.434;2023-08-06T04:54:13;25.60;51.60
16901;DHT22;8567;52.540;6.434;2023-08-06T04:56:40;25.50;51.60
16901;DHT22;8567;52.540;6.434;2023-08-06T04:59:07;25.50;51.60
16901;DHT22;8567;52.540;6.434;2023-08-06T05:01:35;25.60;51.50
16901;DHT22;8567;52.540;6.434;2023-08-06T05:04:02;25.60;51.50
16901;DHT22;8567;52.540;6.434;2023-08-06T05:06:29;25.60;51.50
16901;DHT22;8567;52.540;6.434;2023-08-06T05:08:55;25.60;51.50
16901;DHT22;8567;52.540;6.434;2023-08-06T05:11:23;25.60;51.50
16901;DHT22;8567;52.540;6.434;2023-08-06T05:13:50;25.60;51.40
16901;DHT22;8567;52.540;6.434;2023-08-06T05:16:17;25.60;51.40
16901;DHT22;8567;52.540;6.434;2023-08-06T05:18:45;25.60;51.40
16901;DHT22;8567;52.540;6.434;2023-08-06T05:21:12;25.60;51.50
16901;DHT22;8567;52.540;6.434;2023-08-06T05:23:39;25.60;51.50
16901;DHT22;8567;52.540;6.434;2023-08-06T05:26:06;25.60;51.50
16901;DHT22;8567;52.540;6.434;2023-08-06T05:28:33;25.60;51.50
16901;DHT22;8567;52.540;6.434;2023-08-06T05:31:03;25.60;51.50
16901;DHT22;8567;52.540;6.434;2023-08-06T05:33:30;25.50;51.60
16901;DHT22;8567;52.540;6.434;2023-08-06T05:35:58;25.60;51.40
16901;DHT22;8567;52.540;6.434;2023-08-06T05:38:25;25.60;51.50
16901;DHT22;8567;52.540;6.434;2023-08-06T05:40:52;25.60;51.50
16901;DHT22;8567;52.540;6.434;2023-08-06T05:43:19;25.70;51.30
16901;DHT22;8567;52.540;6.434;2023-08-06T05:45:46;25.70;51.30
16901;DHT22;8567;52.540;6.434;2023-08-06T05:48:13;25.60;51.30
16901;DHT22;8567;52.540;6.434;2023-08-06T05:50:39;25.60;51.40
16901;DHT22;8567;52.540;6.434;2023-08-06T05:53:08;25.60;51.30
16901;DHT22;8567;52.540;6.434;2023-08-06T05:55:35;25.60;51.40
16901;DHT22;8567;52.540;6.434;2023-08-06T05:58:02;25.60;51.40
16901;DHT22;8567;52.540;6.434;2023-08-06T06:00:28;25.60;51.40
16901;DHT22;8567;52.540;6.434;2023-08-06T06:02:55;25.60;51.30
16901;DHT22;8567;52.540;6.434;2023-08-06T06:05:22;25.60;51.40
16901;DHT22;8567;52.540;6.434;2023-08-06T06:07:49;25.60;51.40
16901;DHT22;8567;52.540;6.434;2023-08-06T06:10:17;25.60;51.40
16901;DHT22;8567;52.540;6.434;2023-08-06T06:12:44;25.70;51.30
16901;DHT22;8567;52.540;6.434;2023-08-06T06:15:11;25.70;51.30
16901;DHT22;8567;52.540;6.434;2023-08-06T06:17:38;25.70;51.30
16901;DHT22;8567;52.540;6.434;2023-08-06T06:20:06;25.80;51.20
16901;DHT22;8567;52.540;6.434;2023-08-06T06:22:33;25.80;51.10
16901;DHT22;8567;52.540;6.434;2023-08-06T06:25:00;25.80;51.10
16901;DHT22;8567;52.540;6.434;2023-08-06T06:27:28;25.80;51.10
16901;DHT22;8567;52.540;6.434;2023-08-06T06:29:55;25.80;51.10
16901;DHT22;8567;52.540;6.434;2023-08-06T06:32:22;25.70;51.20
16901;DHT22;8567;52.540;6.434;2023-08-06T06:34:49;25.70;51.20
16901;DHT22;8567;52.540;6.434;2023-08-06T06:37:16;25.80;51.10
16901;DHT22;8567;52.540;6.434;2023-08-06T06:39:42;25.80;51.10
16901;DHT22;8567;52.540;6.434;2023-08-06T06:42:10;25.80;51.10
16901;DHT22;8567;52.540;6.434;2023-08-06T06:44:38;25.70;51.10
16901;DHT22;8567;52.540;6.434;2023-08-06T06:47:05;25.70;51.20
16901;DHT22;8567;52.540;6.434;2023-08-06T06:49:32;25.80;51.10
16901;DHT22;8567;52.540;6.434;2023-08-06T06:51:59;25.80;51.10
16901;DHT22;8567;52.540;6.434;2023-08-06T06:54:25;25.80;51.10
16901;DHT22;8567;52.540;6.434;2023-08-06T06:56:53;25.70;51.20
16901;DHT22;8567;52.540;6.434;2023-08-06T06:59:19;25.80;51.10
16901;DHT22;8567;52.540;6.434;2023-08-06T07:01:48;25.70;51.20
16901;DHT22;8567;52.540;6.434;2023-08-06T07:04:14;25.80;51.20
16901;DHT22;8567;52.540;6.434;2023-08-06T07:06:41;25.70;51.30
16901;DHT22;8567;52.540;6.434;2023-08-06T07:09:08;25.70;51.30
16901;DHT22;8567;52.540;6.434;2023-08-06T07:11:35;25.70;51.30
16901;DHT22;8567;52.540;6.434;2023-08-06T07:14:02;25.60;51.40
16901;DHT22;8567;52.540;6.434;2023-08-06T07:16:30;25.70;51.30
16901;DHT22;8567;52.540;6.434;2023-08-06T07:18:58;25.60;51.50
16901;DHT22;8567;52.540;6.434;2023-08-06T07:21:25;25.60;51.50
16901;DHT22;8567;52.540;6.434;2023-08-06T07:23:52;25.60;51.60
16901;DHT22;8567;52.540;6.434;2023-08-06T07:26:19;25.60;51.50
16901;DHT22;8567;52.540;6.434;2023-08-06T07:28:45;25.50;51.60
16901;DHT22;8567;52.540;6.434;2023-08-06T07:31:12;25.50;51.60
16901;DHT22;8567;52.540;6.434;2023-08-06T07:33:39;25.60;51.50
16901;DHT22;8567;52.540;6.434;2023-08-06T07:36:11;25.60;51.60
16901;DHT22;8567;52.540;6.434;2023-08-06T07:38:39;25.60;51.60
16901;DHT22;8567;52.540;6.434;2023-08-06T07:41:05;25.50;51.70
16901;DHT22;8567;52.540;6.434;2023-08-06T07:43:32;25.60;51.70
16901;DHT22;8567;52.540;6.434;2023-08-06T07:46:01;25.60;51.60
16901;DHT22;8567;52.540;6.434;2023-08-06T07:48:28;25.60;51.60
16901;DHT22;8567;52.540;6.434;2023-08-06T07:50:55;25.60;51.60
16901;DHT22;8567;52.540;6.434;2023-08-06T07:53:25;25.60;51.60
16901;DHT22;8567;52.540;6.434;2023-08-06T07:55:55;25.60;51.60
16901;DHT22;8567;52.540;6.434;2023-08-06T07:58:23;25.60;51.60
16901;DHT22;8567;52.540;6.434;2023-08-06T08:00:50;25.60;51.60
16901;DHT22;8567;52.540;6.434;2023-08-06T08:03:18;25.70;51.50
16901;DHT22;8567;52.540;6.434;2023-08-06T08:05:45;25.70;51.30
16901;DHT22;8567;52.540;6.434;2023-08-06T08:08:12;25.60;51.50
16901;DHT22;8567;52.540;6.434;2023-08-06T08:10:41;25.70;51.40
16901;DHT22;8567;52.540;6.434;2023-08-06T08:13:08;25.70;51.40
16901;DHT22;8567;52.540;6.434;2023-08-06T08:15:35;25.70;51.40
16901;DHT22;8567;52.540;6.434;2023-08-06T08:18:02;25.60;51.60
16901;DHT22;8567;52.540;6.434;2023-08-06T08:20:29;25.60;51.70
16901;DHT22;8567;52.540;6.434;2023-08-06T08:22:58;25.60;51.60
16901;DHT22;8567;52.540;6.434;2023-08-06T08:25:26;25.60;51.70
16901;DHT22;8567;52.540;6.434;2023-08-06T08:27:54;25.50;51.90
16901;DHT22;8567;52.540;6.434;2023-08-06T08:30:22;25.50;52.00
16901;DHT22;8567;52.540;6.434;2023-08-06T08:32:50;25.40;52.10
16901;DHT22;8567;52.540;6.434;2023-08-06T08:35:17;25.50;52.00
16901;DHT22;8567;52.540;6.434;2023-08-06T08:37:44;25.50;52.00
16901;DHT22;8567;52.540;6.434;2023-08-06T08:40:11;25.40;52.10
16901;DHT22;8567;52.540;6.434;2023-08-06T08:42:38;25.40;52.10
16901;DHT22;8567;52.540;6.434;2023-08-06T08:45:11;25.40;52.10
16901;DHT22;8567;52.540;6.434;2023-08-06T08:47:40;25.50;52.00
16901;DHT22;8567;52.540;6.434;2023-08-06T08:50:09;25.50;52.10
16901;DHT22;8567;52.540;6.434;2023-08-06T08:52:37;25.70;51.60
16901;DHT22;8567;52.540;6.434;2023-08-06T08:55:07;25.80;51.20
16901;DHT22;8567;52.540;6.434;2023-08-06T08:57:34;25.90;51.00
16901;DHT22;8567;52.540;6.434;2023-08-06T09:00:01;25.80;51.20
16901;DHT22;8567;52.540;6.434;2023-08-06T09:02:31;25.80;51.40
16901;DHT22;8567;52.540;6.434;2023-08-06T09:05:00;25.80;51.40
16901;DHT22;8567;52.540;6.434;2023-08-06T09:07:31;25.80;51.40
16901;DHT22;8567;52.540;6.434;2023-08-06T09:10:02;25.80;51.30
16901;DHT22;8567;52.540;6.434;2023-08-06T09:12:30;25.90;51.30
16901;DHT22;8567;52.540;6.434;2023-08-06T09:14:57;26.00;51.00
16901;DHT22;8567;52.540;6.434;2023-08-06T09:17:24;25.90;51.00
16901;DHT22;8567;52.540;6.434;2023-08-06T09:19:52;26.00;51.10
16901;DHT22;8567;52.540;6.434;2023-08-06T09:22:19;26.00;51.00
16901;DHT22;8567;52.540;6.434;2023-08-06T09:24:46;25.90;51.40
16901;DHT22;8567;52.540;6.434;2023-08-06T09:27:13;25.80;51.40
16901;DHT22;8567;52.540;6.434;2023-08-06T09:29:41;25.90;51.40
16901;DHT22;8567;52.540;6.434;2023-08-06T09:32:09;25.90;51.40
16901;DHT22;8567;52.540;6.434;2023-08-06T09:34:39;25.80;51.70
16901;DHT22;8567;52.540;6.434;2023-08-06T09:37:08;26.00;51.30
16901;DHT22;8567;52.540;6.434;2023-08-06T09:39:36;26.00;51.20
16901;DHT22;8567;52.540;6.434;2023-08-06T09:42:03;26.00;51.10
16901;DHT22;8567;52.540;6.434;2023-08-06T09:44:31;26.00;51.20
16901;DHT22;8567;52.540;6.434;2023-08-06T09:47:00;26.00;51.30
16901;DHT22;8567;52.540;6.434;2023-08-06T09:49:28;26.20;51.10
16901;DHT22;8567;52.540;6.434;2023-08-06T09:51:55;26.00;51.30
16901;DHT22;8567;52.540;6.434;2023-08-06T09:54:25;25.90;51.40
16901;DHT22;8567;52.540;6.434;2023-08-06T09:56:53;25.70;51.80
16901;DHT22;8567;52.540;6.434;2023-08-06T09:59:20;25.50;52.30
16901;DHT22;8567;52.540;6.434;2023-08-06T10:01:48;25.60;52.20
16901;DHT22;8567;52.540;6.434;2023-08-06T10:04:15;25.50;52.20
16901;DHT22;8567;52.540;6.434;2023-08-06T10:06:46;25.50;52.10
16901;DHT22;8567;52.540;6.434;2023-08-06T10:09:13;25.40;52.30
16901;DHT22;8567;52.540;6.434;2023-08-06T10:11:42;25.30;52.50
16901;DHT22;8567;52.540;6.434;2023-08-06T10:14:16;25.40;52.30
16901;DHT22;8567;52.540;6.434;2023-08-06T10:16:47;25.40;52.20
16901;DHT22;8567;52.540;6.434;2023-08-06T10:19:15;25.40;52.50
16901;DHT22;8567;52.540;6.434;2023-08-06T10:22:10;25.40;52.30
16901;DHT22;8567;52.540;6.434;2023-08-06T10:24:50;25.60;52.10
16901;DHT22;8567;52.540;6.434;2023-08-06T10:27:23;25.60;51.90
16901;DHT22;8567;52.540;6.434;2023-08-06T10:29:54;25.70;51.80
16901;DHT22;8567;52.540;6.434;2023-08-06T10:32:21;25.80;51.40
16901;DHT22;8567;52.540;6.434;2023-08-06T10:34:58;25.80;51.50
16901;DHT22;8567;52.540;6.434;2023-08-06T10:37:35;25.80;51.60
16901;DHT22;8567;52.540;6.434;2023-08-06T10:40:03;25.80;51.30
16901;DHT22;8567;52.540;6.434;2023-08-06T10:42:34;25.90;50.80
16901;DHT22;8567;52.540;6.434;2023-08-06T10:45:14;25.80;51.30
16901;DHT22;8567;52.540;6.434;2023-08-06T10:47:42;25.90;50.50
16901;DHT22;8567;52.540;6.434;2023-08-06T10:50:11;25.90;50.60
16901;DHT22;8567;52.540;6.434;2023-08-06T10:52:38;26.00;50.30
16901;DHT22;8567;52.540;6.434;2023-08-06T10:55:06;26.00;50.00
16901;DHT22;8567;52.540;6.434;2023-08-06T10:57:34;26.00;50.10
16901;DHT22;8567;52.540;6.434;2023-08-06T11:00:01;26.00;49.90
16901;DHT22;8567;52.540;6.434;2023-08-06T11:02:28;26.00;50.10
16901;DHT22;8567;52.540;6.434;2023-08-06T11:05:05;26.00;50.20
16901;DHT22;8567;52.540;6.434;2023-08-06T11:07:32;26.00;50.20
16901;DHT22;8567;52.540;6.434;2023-08-06T11:10:02;25.90;50.10
16901;DHT22;8567;52.540;6.434;2023-08-06T11:12:29;25.90;50.20
16901;DHT22;8567;52.540;6.434;2023-08-06T11:14:57;25.90;50.30
16901;DHT22;8567;52.540;6.434;2023-08-06T11:17:24;25.90;50.40
16901;DHT22;8567;52.540;6.434;2023-08-06T11:19:52;25.90;50.10
16901;DHT22;8567;52.540;6.434;2023-08-06T11:22:19;25.90;49.90
16901;DHT22;8567;52.540;6.434;2023-08-06T11:24:46;25.90;50.10
16901;DHT22;8567;52.540;6.434;2023-08-06T11:27:13;25.90;49.90
16901;DHT22;8567;52.540;6.434;2023-08-06T11:29:40;25.90;50.00
16901;DHT22;8567;52.540;6.434;2023-08-06T11:32:09;25.90;50.40
16901;DHT22;8567;52.540;6.434;2023-08-06T11:34:36;25.80;50.40
16901;DHT22;8567;52.540;6.434;2023-08-06T11:37:04;25.70;50.70
16901;DHT22;8567;52.540;6.434;2023-08-06T11:39:31;25.70;50.60
16901;DHT22;8567;52.540;6.434;2023-08-06T11:41:58;25.90;50.30
16901;DHT22;8567;52.540;6.434;2023-08-06T11:44:30;26.00;50.30
16901;DHT22;8567;52.540;6.434;2023-08-06T11:46:59;26.00;50.30
16901;DHT22;8567;52.540;6.434;2023-08-06T11:49:45;26.10;50.20
16901;DHT22;8567;52.540;6.434;2023-08-06T11:52:17;26.10;50.00
16901;DHT22;8567;52.540;6.434;2023-08-06T11:54:47;26.10;49.80
16901;DHT22;8567;52.540;6.434;2023-08-06T11:57:14;26.10;49.90
16901;DHT22;8567;52.540;6.434;2023-08-06T11:59:42;26.10;50.00
16901;DHT22;8567;52.540;6.434;2023-08-06T12:02:09;26.10;50.00
16901;DHT22;8567;52.540;6.434;2023-08-06T12:05:00;26.10;49.90
16901;DHT22;8567;52.540;6.434;2023-08-06T12:07:29;26.10;49.70
16901;DHT22;8567;52.540;6.434;2023-08-06T12:09:56;26.10;49.90
16901;DHT22;8567;52.540;6.434;2023-08-06T12:12:23;26.10;49.90
16901;DHT22;8567;52.540;6.434;2023-08-06T12:14:50;26.10;50.20
16901;DHT22;8567;52.540;6.434;2023-08-06T12:17:17;26.20;50.30
16901;DHT22;8567;52.540;6.434;2023-08-06T12:19:45;26.20;50.40
16901;DHT22;8567;52.540;6.434;2023-08-06T12:22:14;26.20;50.20
16901;DHT22;8567;52.540;6.434;2023-08-06T12:24:42;26.30;49.80
16901;DHT22;8567;52.540;6.434;2023-08-06T12:27:08;26.30;49.70
16901;DHT22;8567;52.540;6.434;2023-08-06T12:29:36;26.30;49.50
16901;DHT22;8567;52.540;6.434;2023-08-06T12:32:04;26.20;49.60
16901;DHT22;8567;52.540;6.434;2023-08-06T12:34:31;26.20;49.70
16901;DHT22;8567;52.540;6.434;2023-08-06T12:36:58;26.20;49.70
16901;DHT22;8567;52.540;6.434;2023-08-06T12:39:26;26.30;49.50
16901;DHT22;8567;52.540;6.434;2023-08-06T12:41:54;26.40;49.40
16901;DHT22;8567;52.540;6.434;2023-08-06T12:44:23;26.40;49.20
16901;DHT22;8567;52.540;6.434;2023-08-06T12:46:50;26.50;49.20
16901;DHT22;8567;52.540;6.434;2023-08-06T12:49:16;26.50;49.20
16901;DHT22;8567;52.540;6.434;2023-08-06T12:51:43;26.70;49.10
16901;DHT22;8567;52.540;6.434;2023-08-06T12:54:10;26.70;48.80
16901;DHT22;8567;52.540;6.434;2023-08-06T12:56:39;26.80;48.80
16901;DHT22;8567;52.540;6.434;2023-08-06T12:59:05;26.80;48.40
16901;DHT22;8567;52.540;6.434;2023-08-06T13:01:32;26.80;48.30
16901;DHT22;8567;52.540;6.434;2023-08-06T13:04:00;26.70;48.30
16901;DHT22;8567;52.540;6.434;2023-08-06T13:06:27;26.80;48.20
16901;DHT22;8567;52.540;6.434;2023-08-06T13:08:54;26.70;48.40
16901;DHT22;8567;52.540;6.434;2023-08-06T13:11:21;26.70;48.60
16901;DHT22;8567;52.540;6.434;2023-08-06T13:13:49;26.70;48.60
16901;DHT22;8567;52.540;6.434;2023-08-06T13:16:16;26.70;48.70
16901;DHT22;8567;52.540;6.434;2023-08-06T13:18:42;26.60;48.80
16901;DHT22;8567;52.540;6.434;2023-08-06T13:21:09;26.50;49.00
16901;DHT22;8567;52.540;6.434;2023-08-06T13:23:36;26.50;49.10
16901;DHT22;8567;52.540;6.434;2023-08-06T13:26:03;26.50;49.10
16901;DHT22;8567;52.540;6.434;2023-08-06T13:28:30;26.40;49.10
16901;DHT22;8567;52.540;6.434;2023-08-06T13:30:58;26.40;49.20
16901;DHT22;8567;52.540;6.434;2023-08-06T13:33:25;26.30;49.50
16901;DHT22;8567;52.540;6.434;2023-08-06T13:35:53;26.20;49.40
16901;DHT22;8567;52.540;6.434;2023-08-06T13:38:20;26.20;49.50
16901;DHT22;8567;52.540;6.434;2023-08-06T13:40:46;26.10;49.40
16901;DHT22;8567;52.540;6.434;2023-08-06T13:43:14;25.90;50.20
16901;DHT22;8567;52.540;6.434;2023-08-06T13:45:42;25.90;50.70
16901;DHT22;8567;52.540;6.434;2023-08-06T13:48:10;25.80;51.10
16901;DHT22;8567;52.540;6.434;2023-08-06T13:50:37;25.70;51.50
16901;DHT22;8567;52.540;6.434;2023-08-06T13:53:04;25.70;51.80
16901;DHT22;8567;52.540;6.434;2023-08-06T13:55:31;25.70;51.60
16901;DHT22;8567;52.540;6.434;2023-08-06T13:57:58;25.70;52.00
16901;DHT22;8567;52.540;6.434;2023-08-06T14:00:25;25.80;52.20
16901;DHT22;8567;52.540;6.434;2023-08-06T14:02:52;26.00;51.60
16901;DHT22;8567;52.540;6.434;2023-08-06T14:05:20;26.00;51.30
16901;DHT22;8567;52.540;6.434;2023-08-06T14:07:47;26.00;51.30
16901;DHT22;8567;52.540;6.434;2023-08-06T14:10:14;26.10;51.20
16901;DHT22;8567;52.540;6.434;2023-08-06T14:12:40;26.00;51.50
16901;DHT22;8567;52.540;6.434;2023-08-06T14:15:08;26.10;51.30
16901;DHT22;8567;52.540;6.434;2023-08-06T14:17:35;26.10;51.30
16901;DHT22;8567;52.540;6.434;2023-08-06T14:20:02;26.20;51.10
16901;DHT22;8567;52.540;6.434;2023-08-06T14:22:31;26.30;50.90
16901;DHT22;8567;52.540;6.434;2023-08-06T14:24:58;26.40;50.80
16901;DHT22;8567;52.540;6.434;2023-08-06T14:27:25;26.40;50.70
16901;DHT22;8567;52.540;6.434;2023-08-06T14:29:52;26.50;50.70
16901;DHT22;8567;52.540;6.434;2023-08-06T14:32:19;26.50;50.70
16901;DHT22;8567;52.540;6.434;2023-08-06T14:34:46;26.40;50.70
16901;DHT22;8567;52.540;6.434;2023-08-06T14:37:13;26.50;50.70
16901;DHT22;8567;52.540;6.434;2023-08-06T14:39:42;26.50;50.60
16901;DHT22;8567;52.540;6.434;2023-08-06T14:42:09;26.40;50.80
16901;DHT22;8567;52.540;6.434;2023-08-06T14:44:35;26.50;50.70
16901;DHT22;8567;52.540;6.434;2023-08-06T14:47:02;26.40;51.10
16901;DHT22;8567;52.540;6.434;2023-08-06T14:49:29;26.40;51.10
16901;DHT22;8567;52.540;6.434;2023-08-06T14:51:56;26.40;51.00
16901;DHT22;8567;52.540;6.434;2023-08-06T14:54:25;26.50;51.00
16901;DHT22;8567;52.540;6.434;2023-08-06T14:56:53;26.50;51.00
16901;DHT22;8567;52.540;6.434;2023-08-06T14:59:20;26.50;51.10
16901;DHT22;8567;52.540;6.434;2023-08-06T15:01:47;26.50;51.10
16901;DHT22;8567;52.540;6.434;2023-08-06T15:04:14;26.40;51.20
16901;DHT22;8567;52.540;6.434;2023-08-06T15:06:41;26.40;51.40
16901;DHT22;8567;52.540;6.434;2023-08-06T15:09:07;26.50;51.10
16901;DHT22;8567;52.540;6.434;2023-08-06T15:11:34;26.50;51.00
16901;DHT22;8567;52.540;6.434;2023-08-06T15:14:02;26.50;51.10
16901;DHT22;8567;52.540;6.434;2023-08-06T15:16:32;26.50;51.20
16901;DHT22;8567;52.540;6.434;2023-08-06T15:18:59;26.50;51.20
16901;DHT22;8567;52.540;6.434;2023-08-06T15:21:26;26.50;51.20
16901;DHT22;8567;52.540;6.434;2023-08-06T15:23:53;26.30;51.60
16901;DHT22;8567;52.540;6.434;2023-08-06T15:26:20;26.20;51.90
16901;DHT22;8567;52.540;6.434;2023-08-06T15:28:47;26.10;51.80
16901;DHT22;8567;52.540;6.434;2023-08-06T15:31:19;26.10;51.70
16901;DHT22;8567;52.540;6.434;2023-08-06T15:33:46;26.40;51.10
16901;DHT22;8567;52.540;6.434;2023-08-06T15:36:13;26.50;50.90
16901;DHT22;8567;52.540;6.434;2023-08-06T15:38:40;26.60;50.70
16901;DHT22;8567;52.540;6.434;2023-08-06T15:41:07;26.60;50.80
16901;DHT22;8567;52.540;6.434;2023-08-06T15:43:34;26.70;50.70
16901;DHT22;8567;52.540;6.434;2023-08-06T15:46:01;26.70;50.60
16901;DHT22;8567;52.540;6.434;2023-08-06T15:48:29;26.80;50.60